sensor_id;sensor_type;location;lat;lon;timestamp;pressure;altitude;pressure_sealevel;temperature;humidity
41515;BME280;27247;48.020;16.720;2023-02-04T00:02:09;99819.53;;;5.47;88.32
41515;BME280;27247;48.020;16.720;2023-02-04T00:06:22;99812.84;;;5.43;88.46
41515;BME280;27247;48.020;16.720;2023-02-04T00:10:32;99821.19;;;5.48;89.10
41515;BME280;27247;48.020;16.720;2023-02-04T00:14:43;99814.50;;;5.44;87.83
41515;BME280;27247;48.020;16.720;2023-02-04T00:18:53;99821.63;;;5.43;87.93
41515;BME280;27247;48.020;16.720;2023-02-04T00:23:04;99824.13;;;5.45;86.63
41515;BME280;27247;48.020;16.720;2023-02-04T00:27:14;99820.06;;;5.51;85.34
41515;BME280;27247;48.020;16.720;2023-02-04T00:31:25;99824.94;;;5.55;85.97
41515;BME280;27247;48.020;16.720;2023-02-04T00:35:35;99835.69;;;5.54;87.33
41515;BME280;27247;48.020;16.720;2023-02-04T00:39:49;99827.75;;;5.54;88.79
41515;BME280;27247;48.020;16.720;2023-02-04T00:43:59;99831.41;;;5.43;90.47
41515;BME280;27247;48.020;16.720;2023-02-04T00:48:10;99826.53;;;5.38;90.33
41515;BME280;27247;48.020;16.720;2023-02-04T00:52:20;99833.22;;;5.33;92.43
41515;BME280;27247;48.020;16.720;2023-02-04T00:56:31;99829.19;;;5.29;92.53
41515;BME280;27247;48.020;16.720;2023-02-04T01:00:41;99816.22;;;5.26;93.46
41515;BME280;27247;48.020;16.720;2023-02-04T01:04:52;99825.16;;;5.25;92.85
41515;BME280;27247;48.020;16.720;2023-02-04T01:09:03;99810.25;;;5.24;92.09
41515;BME280;27247;48.020;16.720;2023-02-04T01:13:13;99821.66;;;5.24;91.08
41515;BME280;27247;48.020;16.720;2023-02-04T01:17:23;99822.78;;;5.31;88.56
41515;BME280;27247;48.020;16.720;2023-02-04T01:21:34;99821.09;;;5.40;87.93
41515;BME280;27247;48.020;16.720;2023-02-04T01:25:44;99824.00;;;5.47;86.58
41515;BME280;27247;48.020;16.720;2023-02-04T01:29:55;99823.59;;;5.41;88.03
41515;BME280;27247;48.020;16.720;2023-02-04T01:34:05;99811.59;;;5.47;86.95
41515;BME280;27247;48.020;16.720;2023-02-04T01:38:16;99817.44;;;5.41;87.83
41515;BME280;27247;48.020;16.720;2023-02-04T01:42:26;99828.75;;;5.43;87.81
41515;BME280;27247;48.020;16.720;2023-02-04T01:46:37;99826.53;;;5.38;88.95
41515;BME280;27247;48.020;16.720;2023-02-04T01:51:02;99825.41;;;5.31;88.80
41515;BME280;27247;48.020;16.720;2023-02-04T01:55:16;99827.09;;;5.32;89.04
41515;BME280;27247;48.020;16.720;2023-02-04T01:59:27;99819.56;;;5.28;88.77
41515;BME280;27247;48.020;16.720;2023-02-04T02:03:37;99824.47;;;5.23;90.45
41515;BME280;27247;48.020;16.720;2023-02-04T02:07:48;99813.56;;;5.16;90.25
41515;BME280;27247;48.020;16.720;2023-02-04T02:12:01;99807.56;;;5.14;91.02
41515;BME280;27247;48.020;16.720;2023-02-04T02:16:12;99811.06;;;5.14;90.78
41515;BME280;27247;48.020;16.720;2023-02-04T02:20:23;99813.41;;;5.18;89.85
41515;BME280;27247;48.020;16.720;2023-02-04T02:24:34;99822.50;;;5.25;88.68
41515;BME280;27247;48.020;16.720;2023-02-04T02:28:45;99827.53;;;5.28;89.28
41515;BME280;27247;48.020;16.720;2023-02-04T02:32:57;99811.91;;;5.25;89.29
41515;BME280;27247;48.020;16.720;2023-02-04T02:37:08;99805.91;;;5.23;89.33
41515;BME280;27247;48.020;16.720;2023-02-04T02:41:18;99803.81;;;5.26;88.91
41515;BME280;27247;48.020;16.720;2023-02-04T02:45:30;99820.81;;;5.33;87.76
41515;BME280;27247;48.020;16.720;2023-02-04T02:49:41;99816.34;;;5.34;87.78
41515;BME280;27247;48.020;16.720;2023-02-04T02:53:51;99812.16;;;5.41;87.02
41515;BME280;27247;48.020;16.720;2023-02-04T02:58:02;99799.47;;;5.35;87.16
41515;BME280;27247;48.020;16.720;2023-02-04T03:02:18;99814.53;;;5.34;87.21
41515;BME280;27247;48.020;16.720;2023-02-04T03:06:33;99813.28;;;5.29;87.27
41515;BME280;27247;48.020;16.720;2023-02-04T03:10:44;99808.13;;;5.37;86.71
41515;BME280;27247;48.020;16.720;2023-02-04T03:14:54;99808.53;;;5.42;86.06
41515;BME280;27247;48.020;16.720;2023-02-04T03:19:06;99806.56;;;5.44;85.72
41515;BME280;27247;48.020;16.720;2023-02-04T03:23:18;99816.88;;;5.47;86.28
41515;BME280;27247;48.020;16.720;2023-02-04T03:27:29;99809.06;;;5.45;86.22
41515;BME280;27247;48.020;16.720;2023-02-04T03:31:39;99792.34;;;5.45;86.63
41515;BME280;27247;48.020;16.720;2023-02-04T03:35:50;99784.81;;;5.40;86.17
41515;BME280;27247;48.020;16.720;2023-02-04T03:40:01;99778.09;;;5.46;84.99
41515;BME280;27247;48.020;16.720;2023-02-04T03:44:11;99797.63;;;5.45;86.08
41515;BME280;27247;48.020;16.720;2023-02-04T03:48:21;99773.94;;;5.43;85.60
41515;BME280;27247;48.020;16.720;2023-02-04T03:52:32;99797.50;;;5.47;84.73
41515;BME280;27247;48.020;16.720;2023-02-04T03:56:42;99800.53;;;5.52;83.53
41515;BME280;27247;48.020;16.720;2023-02-04T04:00:52;99779.72;;;5.66;82.58
41515;BME280;27247;48.020;16.720;2023-02-04T04:05:03;99803.56;;;5.66;82.58
41515;BME280;27247;48.020;16.720;2023-02-04T04:09:13;99808.88;;;5.66;82.72
41515;BME280;27247;48.020;16.720;2023-02-04T04:13:24;99817.75;;;5.75;81.03
41515;BME280;27247;48.020;16.720;2023-02-04T04:17:34;99820.41;;;5.75;80.20
41515;BME280;27247;48.020;16.720;2023-02-04T04:21:44;99844.59;;;5.62;83.27
41515;BME280;27247;48.020;16.720;2023-02-04T04:25:55;99901.28;;;5.32;87.25
41515;BME280;27247;48.020;16.720;2023-02-04T04:30:05;99954.56;;;4.30;90.48
41515;BME280;27247;48.020;16.720;2023-02-04T04:34:16;99937.34;;;3.63;94.04
41515;BME280;27247;48.020;16.720;2023-02-04T04:38:26;99924.50;;;3.59;95.20
41515;BME280;27247;48.020;16.720;2023-02-04T04:42:37;99932.31;;;3.60;95.00
41515;BME280;27247;48.020;16.720;2023-02-04T04:46:47;99938.94;;;3.55;94.69
41515;BME280;27247;48.020;16.720;2023-02-04T04:50:57;99953.97;;;3.54;90.91
41515;BME280;27247;48.020;16.720;2023-02-04T04:55:08;99984.19;;;3.61;87.22
41515;BME280;27247;48.020;16.720;2023-02-04T04:59:18;99980.56;;;3.62;85.56
41515;BME280;27247;48.020;16.720;2023-02-04T05:03:29;100024.78;;;3.60;85.14
41515;BME280;27247;48.020;16.720;2023-02-04T05:07:39;100008.47;;;3.55;84.65
41515;BME280;27247;48.020;16.720;2023-02-04T05:11:49;100059.53;;;3.76;81.02
41515;BME280;27247;48.020;16.720;2023-02-04T05:16:00;100067.09;;;3.81;83.36
41515;BME280;27247;48.020;16.720;2023-02-04T05:20:10;100061.22;;;3.77;82.58
41515;BME280;27247;48.020;16.720;2023-02-04T05:24:21;100069.88;;;3.79;80.79
41515;BME280;27247;48.020;16.720;2023-02-04T05:28:31;100087.19;;;3.72;78.19
41515;BME280;27247;48.020;16.720;2023-02-04T05:32:42;100117.13;;;3.62;77.42
41515;BME280;27247;48.020;16.720;2023-02-04T05:36:52;100113.66;;;3.61;77.34
41515;BME280;27247;48.020;16.720;2023-02-04T05:41:02;100125.44;;;3.57;77.13
41515;BME280;27247;48.020;16.720;2023-02-04T05:45:14;100144.75;;;3.58;76.05
41515;BME280;27247;48.020;16.720;2023-02-04T05:49:25;100178.41;;;3.56;75.29
41515;BME280;27247;48.020;16.720;2023-02-04T05:53:35;100192.69;;;3.53;74.86
41515;BME280;27247;48.020;16.720;2023-02-04T05:57:45;100223.44;;;3.54;74.64
41515;BME280;27247;48.020;16.720;2023-02-04T06:01:56;100216.47;;;3.53;74.88
41515;BME280;27247;48.020;16.720;2023-02-04T06:06:06;100223.06;;;3.47;74.37
41515;BME280;27247;48.020;16.720;2023-02-04T06:10:17;100231.59;;;3.40;74.80
41515;BME280;27247;48.020;16.720;2023-02-04T06:14:27;100274.59;;;3.42;75.59
41515;BME280;27247;48.020;16.720;2023-02-04T06:18:37;100314.56;;;3.37;74.42
41515;BME280;27247;48.020;16.720;2023-02-04T06:22:48;100324.03;;;3.29;75.26
41515;BME280;27247;48.020;16.720;2023-02-04T06:27:00;100343.09;;;3.21;75.80
41515;BME280;27247;48.020;16.720;2023-02-04T06:31:11;100380.41;;;3.16;76.82
41515;BME280;27247;48.020;16.720;2023-02-04T06:35:21;100360.78;;;3.08;76.15
41515;BME280;27247;48.020;16.720;2023-02-04T06:39:31;100392.19;;;3.00;76.17
41515;BME280;27247;48.020;16.720;2023-02-04T06:43:42;100398.72;;;2.83;74.74
41515;BME280;27247;48.020;16.720;2023-02-04T06:47:52;100415.63;;;2.80;75.21
41515;BME280;27247;48.020;16.720;2023-02-04T06:52:03;100433.91;;;2.71;75.08
41515;BME280;27247;48.020;16.720;2023-02-04T06:56:13;100450.94;;;2.67;75.41
41515;BME280;27247;48.020;16.720;2023-02-04T07:00:23;100457.59;;;2.60;74.71
41515;BME280;27247;48.020;16.720;2023-02-04T07:04:34;100463.19;;;2.55;75.31
41515;BME280;27247;48.020;16.720;2023-02-04T07:08:44;100464.25;;;2.52;75.08
41515;BME280;27247;48.020;16.720;2023-02-04T07:12:56;100515.84;;;2.56;75.16
41515;BME280;27247;48.020;16.720;2023-02-04T07:17:06;100541.19;;;2.46;74.20
41515;BME280;27247;48.020;16.720;2023-02-04T07:21:17;100576.44;;;2.45;72.31
41515;BME280;27247;48.020;16.720;2023-02-04T07:25:27;100583.69;;;2.42;71.98
41515;BME280;27247;48.020;16.720;2023-02-04T07:29:37;100605.97;;;2.38;70.68
41515;BME280;27247;48.020;16.720;2023-02-04T07:33:48;100621.78;;;2.38;70.17
41515;BME280;27247;48.020;16.720;2023-02-04T07:37:58;100638.13;;;2.30;69.67
41515;BME280;27247;48.020;16.720;2023-02-04T07:42:09;100646.97;;;2.29;69.71
41515;BME280;27247;48.020;16.720;2023-02-04T07:46:19;100647.94;;;2.28;70.04
41515;BME280;27247;48.020;16.720;2023-02-04T07:50:29;100652.25;;;2.29;71.88
41515;BME280;27247;48.020;16.720;2023-02-04T07:54:40;100655.19;;;2.24;73.21
41515;BME280;27247;48.020;16.720;2023-02-04T07:58:50;100659.63;;;2.24;73.75
41515;BME280;27247;48.020;16.720;2023-02-04T08:03:01;100656.78;;;2.27;73.88
41515;BME280;27247;48.020;16.720;2023-02-04T08:07:11;100663.00;;;2.26;72.07
41515;BME280;27247;48.020;16.720;2023-02-04T08:11:21;100663.41;;;2.20;73.37
41515;BME280;27247;48.020;16.720;2023-02-04T08:15:32;100657.19;;;2.21;71.86
41515;BME280;27247;48.020;16.720;2023-02-04T08:19:42;100688.72;;;2.22;71.63
41515;BME280;27247;48.020;16.720;2023-02-04T08:23:52;100696.66;;;2.22;71.04
41515;BME280;27247;48.020;16.720;2023-02-04T08:28:03;100719.53;;;2.22;71.84
41515;BME280;27247;48.020;16.720;2023-02-04T08:32:13;100735.44;;;2.20;71.33
41515;BME280;27247;48.020;16.720;2023-02-04T08:36:24;100765.09;;;2.24;71.97
41515;BME280;27247;48.020;16.720;2023-02-04T08:40:35;100769.09;;;2.17;70.98
41515;BME280;27247;48.020;16.720;2023-02-04T08:44:45;100797.97;;;2.18;71.83
41515;BME280;27247;48.020;16.720;2023-02-04T08:48:55;100814.56;;;2.20;71.28
41515;BME280;27247;48.020;16.720;2023-02-04T08:53:06;100823.09;;;2.24;71.04
41515;BME280;27247;48.020;16.720;2023-02-04T08:57:16;100831.28;;;2.34;72.39
41515;BME280;27247;48.020;16.720;2023-02-04T09:01:27;100827.78;;;2.33;72.03
41515;BME280;27247;48.020;16.720;2023-02-04T09:05:37;100842.88;;;2.31;72.76
41515;BME280;27247;48.020;16.720;2023-02-04T09:09:47;100851.56;;;2.19;72.99
41515;BME280;27247;48.020;16.720;2023-02-04T09:13:58;100861.34;;;2.17;72.92
41515;BME280;27247;48.020;16.720;2023-02-04T09:18:08;100884.88;;;2.06;72.57
41515;BME280;27247;48.020;16.720;2023-02-04T09:22:30;100903.53;;;2.03;73.31
41515;BME280;27247;48.020;16.720;2023-02-04T09:26:41;100899.59;;;2.10;73.27
41515;BME280;27247;48.020;16.720;2023-02-04T09:30:51;100942.97;;;2.04;72.22
41515;BME280;27247;48.020;16.720;2023-02-04T09:35:02;100951.72;;;2.05;71.04
41515;BME280;27247;48.020;16.720;2023-02-04T09:39:13;100964.91;;;2.05;71.44
41515;BME280;27247;48.020;16.720;2023-02-04T09:43:27;100980.53;;;2.08;70.84
41515;BME280;27247;48.020;16.720;2023-02-04T09:47:38;101000.44;;;2.13;69.08
41515;BME280;27247;48.020;16.720;2023-02-04T09:51:49;101011.47;;;2.20;68.22
41515;BME280;27247;48.020;16.720;2023-02-04T09:56:00;101020.88;;;2.24;68.76
41515;BME280;27247;48.020;16.720;2023-02-04T10:00:19;101032.38;;;2.23;70.33
41515;BME280;27247;48.020;16.720;2023-02-04T10:04:29;101041.31;;;2.20;72.58
41515;BME280;27247;48.020;16.720;2023-02-04T10:08:40;101058.81;;;2.21;72.68
41515;BME280;27247;48.020;16.720;2023-02-04T10:12:54;101059.28;;;2.14;71.76
41515;BME280;27247;48.020;16.720;2023-02-04T10:17:07;101076.31;;;2.08;71.87
41515;BME280;27247;48.020;16.720;2023-02-04T10:21:38;101068.47;;;2.07;71.17
41515;BME280;27247;48.020;16.720;2023-02-04T10:25:49;101079.09;;;2.05;71.50
41515;BME280;27247;48.020;16.720;2023-02-04T10:29:59;101088.78;;;2.05;72.91
41515;BME280;27247;48.020;16.720;2023-02-04T10:38:28;101099.66;;;1.84;71.54
41515;BME280;27247;48.020;16.720;2023-02-04T10:42:47;101111.22;;;1.82;70.23
41515;BME280;27247;48.020;16.720;2023-02-04T10:51:12;101095.38;;;1.98;69.85
41515;BME280;27247;48.020;16.720;2023-02-04T10:55:23;101093.22;;;2.04;69.44
41515;BME280;27247;48.020;16.720;2023-02-04T10:59:35;101117.72;;;2.06;68.92
41515;BME280;27247;48.020;16.720;2023-02-04T11:03:47;101094.31;;;2.16;67.91
41515;BME280;27247;48.020;16.720;2023-02-04T11:07:57;101123.38;;;2.44;68.85
41515;BME280;27247;48.020;16.720;2023-02-04T11:12:37;101117.75;;;2.65;68.95
41515;BME280;27247;48.020;16.720;2023-02-04T11:16:49;101137.91;;;2.80;68.53
41515;BME280;27247;48.020;16.720;2023-02-04T11:20:59;101130.66;;;2.69;67.13
41515;BME280;27247;48.020;16.720;2023-02-04T11:25:32;101135.63;;;2.60;66.09
41515;BME280;27247;48.020;16.720;2023-02-04T11:29:43;101152.81;;;2.95;65.84
41515;BME280;27247;48.020;16.720;2023-02-04T11:38:26;101160.91;;;2.92;63.42
41515;BME280;27247;48.020;16.720;2023-02-04T11:42:39;101171.78;;;3.16;62.10
41515;BME280;27247;48.020;16.720;2023-02-04T11:46:54;101165.94;;;3.25;62.03
41515;BME280;27247;48.020;16.720;2023-02-04T11:51:13;101177.63;;;3.21;60.76
41515;BME280;27247;48.020;16.720;2023-02-04T11:55:24;101177.69;;;3.05;61.35
41515;BME280;27247;48.020;16.720;2023-02-04T11:59:35;101181.09;;;2.93;60.56
41515;BME280;27247;48.020;16.720;2023-02-04T12:03:54;101185.72;;;3.04;59.69
41515;BME280;27247;48.020;16.720;2023-02-04T12:08:26;101186.75;;;2.87;60.21
41515;BME280;27247;48.020;16.720;2023-02-04T12:12:47;101194.19;;;2.80;62.98
41515;BME280;27247;48.020;16.720;2023-02-04T12:16:58;101190.69;;;2.80;63.45
41515;BME280;27247;48.020;16.720;2023-02-04T12:21:09;101187.69;;;2.72;64.01
41515;BME280;27247;48.020;16.720;2023-02-04T12:25:19;101187.66;;;2.58;64.34
41515;BME280;27247;48.020;16.720;2023-02-04T12:29:30;101185.09;;;3.14;60.86
41515;BME280;27247;48.020;16.720;2023-02-04T12:33:40;101162.81;;;3.33;60.69
41515;BME280;27247;48.020;16.720;2023-02-04T12:37:50;101170.97;;;3.57;62.95
41515;BME280;27247;48.020;16.720;2023-02-04T12:42:01;101168.97;;;4.14;63.26
41515;BME280;27247;48.020;16.720;2023-02-04T12:46:13;101183.56;;;3.39;63.55
41515;BME280;27247;48.020;16.720;2023-02-04T12:50:23;101184.00;;;3.60;63.98
41515;BME280;27247;48.020;16.720;2023-02-04T12:54:35;101162.97;;;3.44;61.26
41515;BME280;27247;48.020;16.720;2023-02-04T12:58:45;101189.00;;;3.50;61.47
41515;BME280;27247;48.020;16.720;2023-02-04T13:02:55;101193.31;;;3.65;61.28
41515;BME280;27247;48.020;16.720;2023-02-04T13:07:08;101216.97;;;3.40;59.69
41515;BME280;27247;48.020;16.720;2023-02-04T13:11:19;101212.25;;;3.45;58.90
41515;BME280;27247;48.020;16.720;2023-02-04T13:15:30;101225.69;;;3.69;58.14
41515;BME280;27247;48.020;16.720;2023-02-04T13:19:40;101231.78;;;3.83;58.69
41515;BME280;27247;48.020;16.720;2023-02-04T13:23:50;101247.50;;;3.72;58.65
41515;BME280;27247;48.020;16.720;2023-02-04T13:28:00;101263.38;;;3.30;60.00
41515;BME280;27247;48.020;16.720;2023-02-04T13:32:11;101285.44;;;2.84;59.28
41515;BME280;27247;48.020;16.720;2023-02-04T13:36:21;101278.63;;;3.10;59.15
41515;BME280;27247;48.020;16.720;2023-02-04T13:40:32;101294.91;;;3.47;57.93
41515;BME280;27247;48.020;16.720;2023-02-04T13:44:42;101292.25;;;3.18;56.35
41515;BME280;27247;48.020;16.720;2023-02-04T13:48:53;101299.34;;;3.32;57.07
41515;BME280;27247;48.020;16.720;2023-02-04T13:53:03;101320.00;;;2.96;56.79
41515;BME280;27247;48.020;16.720;2023-02-04T13:57:13;101322.81;;;2.63;56.11
41515;BME280;27247;48.020;16.720;2023-02-04T14:01:25;101327.88;;;2.36;57.20
41515;BME280;27247;48.020;16.720;2023-02-04T14:05:36;101332.38;;;2.18;58.07
41515;BME280;27247;48.020;16.720;2023-02-04T14:09:46;101331.63;;;2.16;59.33
41515;BME280;27247;48.020;16.720;2023-02-04T14:13:57;101346.94;;;2.09;58.83
41515;BME280;27247;48.020;16.720;2023-02-04T14:18:08;101356.38;;;2.13;58.19
41515;BME280;27247;48.020;16.720;2023-02-04T14:22:19;101356.69;;;2.07;58.91
41515;BME280;27247;48.020;16.720;2023-02-04T14:26:30;101365.16;;;1.97;59.80
41515;BME280;27247;48.020;16.720;2023-02-04T14:30:40;101374.19;;;1.92;59.49
41515;BME280;27247;48.020;16.720;2023-02-04T14:34:50;101379.59;;;1.89;59.45
41515;BME280;27247;48.020;16.720;2023-02-04T14:39:01;101381.25;;;2.08;59.94
41515;BME280;27247;48.020;16.720;2023-02-04T14:43:11;101373.00;;;1.98;59.66
41515;BME280;27247;48.020;16.720;2023-02-04T14:47:22;101375.13;;;2.07;59.83
41515;BME280;27247;48.020;16.720;2023-02-04T14:51:32;101383.00;;;2.09;59.74
41515;BME280;27247;48.020;16.720;2023-02-04T14:55:43;101381.81;;;2.14;60.26
41515;BME280;27247;48.020;16.720;2023-02-04T14:59:53;101371.34;;;2.13;58.58
41515;BME280;27247;48.020;16.720;2023-02-04T15:04:03;101391.19;;;2.03;59.52
41515;BME280;27247;48.020;16.720;2023-02-04T15:08:14;101384.63;;;1.94;60.00
41515;BME280;27247;48.020;16.720;2023-02-04T15:12:24;101396.28;;;1.90;60.61
41515;BME280;27247;48.020;16.720;2023-02-04T15:16:34;101392.03;;;1.87;61.59
41515;BME280;27247;48.020;16.720;2023-02-04T15:20:45;101400.50;;;1.77;62.42
41515;BME280;27247;48.020;16.720;2023-02-04T15:24:55;101404.22;;;1.73;63.30
41515;BME280;27247;48.020;16.720;2023-02-04T15:29:06;101403.38;;;1.72;63.29
41515;BME280;27247;48.020;16.720;2023-02-04T15:33:16;101408.97;;;1.66;64.33
41515;BME280;27247;48.020;16.720;2023-02-04T15:37:26;101424.94;;;1.63;64.87
41515;BME280;27247;48.020;16.720;2023-02-04T15:41:37;101430.13;;;1.65;64.28
41515;BME280;27247;48.020;16.720;2023-02-04T15:45:47;101429.44;;;1.61;63.47
41515;BME280;27247;48.020;16.720;2023-02-04T15:49:58;101433.94;;;1.59;64.72
41515;BME280;27247;48.020;16.720;2023-02-04T15:54:08;101442.44;;;1.47;65.16
41515;BME280;27247;48.020;16.720;2023-02-04T15:58:18;101445.56;;;1.38;66.83
41515;BME280;27247;48.020;16.720;2023-02-04T16:02:29;101451.97;;;1.32;67.83
41515;BME280;27247;48.020;16.720;2023-02-04T16:06:39;101445.88;;;1.32;67.40
41515;BME280;27247;48.020;16.720;2023-02-04T16:10:50;101458.81;;;1.36;66.02
41515;BME280;27247;48.020;16.720;2023-02-04T16:15:03;101463.91;;;1.39;66.25
41515;BME280;27247;48.020;16.720;2023-02-04T16:19:13;101458.81;;;1.36;65.30
41515;BME280;27247;48.020;16.720;2023-02-04T16:23:24;101452.06;;;1.31;66.13
41515;BME280;27247;48.020;16.720;2023-02-04T16:27:34;101463.28;;;1.34;66.61
41515;BME280;27247;48.020;16.720;2023-02-04T16:31:44;101477.78;;;1.43;66.50
41515;BME280;27247;48.020;16.720;2023-02-04T16:36:03;101482.28;;;1.41;66.86
41515;BME280;27247;48.020;16.720;2023-02-04T16:40:14;101483.91;;;1.43;67.93
41515;BME280;27247;48.020;16.720;2023-02-04T16:44:25;101479.63;;;1.41;67.09
41515;BME280;27247;48.020;16.720;2023-02-04T16:48:35;101467.41;;;1.40;67.68
41515;BME280;27247;48.020;16.720;2023-02-04T16:52:45;101475.28;;;1.40;66.78
41515;BME280;27247;48.020;16.720;2023-02-04T16:56:56;101499.94;;;1.39;65.93
41515;BME280;27247;48.020;16.720;2023-02-04T17:01:09;101509.47;;;1.41;64.70
41515;BME280;27247;48.020;16.720;2023-02-04T17:05:19;101505.97;;;1.41;64.84
41515;BME280;27247;48.020;16.720;2023-02-04T17:09:30;101505.28;;;1.37;64.65
41515;BME280;27247;48.020;16.720;2023-02-04T17:13:40;101519.06;;;1.42;64.22
41515;BME280;27247;48.020;16.720;2023-02-04T17:17:51;101518.28;;;1.40;65.51
41515;BME280;27247;48.020;16.720;2023-02-04T17:22:01;101523.47;;;1.42;64.59
41515;BME280;27247;48.020;16.720;2023-02-04T17:26:12;101520.22;;;1.37;64.75
41515;BME280;27247;48.020;16.720;2023-02-04T17:30:22;101532.84;;;1.30;66.31
41515;BME280;27247;48.020;16.720;2023-02-04T17:34:33;101535.47;;;1.30;67.48
41515;BME280;27247;48.020;16.720;2023-02-04T17:38:43;101530.66;;;1.21;68.21
41515;BME280;27247;48.020;16.720;2023-02-04T17:42:54;101535.78;;;1.05;68.71
41515;BME280;27247;48.020;16.720;2023-02-04T17:47:05;101532.09;;;1.09;69.57
41515;BME280;27247;48.020;16.720;2023-02-04T17:51:16;101537.63;;;1.03;68.16
41515;BME280;27247;48.020;16.720;2023-02-04T17:55:28;101536.28;;;1.13;68.73
41515;BME280;27247;48.020;16.720;2023-02-04T17:59:41;101539.47;;;1.20;67.52
41515;BME280;27247;48.020;16.720;2023-02-04T18:03:51;101529.94;;;1.17;67.82
41515;BME280;27247;48.020;16.720;2023-02-04T18:12:20;101536.53;;;1.26;66.58
41515;BME280;27247;48.020;16.720;2023-02-04T18:16:33;101545.16;;;1.30;66.62
41515;BME280;27247;48.020;16.720;2023-02-04T18:20:46;101547.78;;;1.30;65.82
41515;BME280;27247;48.020;16.720;2023-02-04T18:24:57;101552.34;;;1.26;67.03
41515;BME280;27247;48.020;16.720;2023-02-04T18:33:36;101548.72;;;1.28;66.38
41515;BME280;27247;48.020;16.720;2023-02-04T18:37:51;101551.56;;;1.24;67.48
41515;BME280;27247;48.020;16.720;2023-02-04T18:42:10;101558.53;;;1.25;67.87
41515;BME280;27247;48.020;16.720;2023-02-04T18:46:26;101557.53;;;1.27;67.96
41515;BME280;27247;48.020;16.720;2023-02-04T18:50:37;101555.06;;;1.24;67.85
41515;BME280;27247;48.020;16.720;2023-02-04T18:54:52;101560.38;;;1.23;67.96
41515;BME280;27247;48.020;16.720;2023-02-04T18:59:10;101564.03;;;1.20;68.30
41515;BME280;27247;48.020;16.720;2023-02-04T19:03:25;101587.16;;;1.14;70.36
41515;BME280;27247;48.020;16.720;2023-02-04T19:07:37;101587.47;;;0.87;75.43
41515;BME280;27247;48.020;16.720;2023-02-04T19:11:53;101598.34;;;0.61;78.97
41515;BME280;27247;48.020;16.720;2023-02-04T19:16:22;101609.88;;;0.38;81.97
41515;BME280;27247;48.020;16.720;2023-02-04T19:20:32;101616.25;;;0.12;84.67
41515;BME280;27247;48.020;16.720;2023-02-04T19:24:44;101627.78;;;-0.12;88.25
41515;BME280;27247;48.020;16.720;2023-02-04T19:28:55;101634.88;;;-0.36;92.43
41515;BME280;27247;48.020;16.720;2023-02-04T19:33:15;101641.72;;;-0.54;95.48
41515;BME280;27247;48.020;16.720;2023-02-04T19:37:40;101624.56;;;-0.62;96.84
41515;BME280;27247;48.020;16.720;2023-02-04T19:41:51;101621.75;;;-0.58;94.98
41515;BME280;27247;48.020;16.720;2023-02-04T19:46:34;101626.09;;;-0.35;91.04
41515;BME280;27247;48.020;16.720;2023-02-04T19:50:46;101630.91;;;-0.24;91.50
41515;BME280;27247;48.020;16.720;2023-02-04T19:59:36;101628.63;;;-0.12;92.21
41515;BME280;27247;48.020;16.720;2023-02-04T20:03:48;101638.28;;;-0.12;94.02
41515;BME280;27247;48.020;16.720;2023-02-04T20:08:09;101639.31;;;-0.16;94.85
41515;BME280;27247;48.020;16.720;2023-02-04T20:12:35;101641.28;;;-0.21;95.24
41515;BME280;27247;48.020;16.720;2023-02-04T20:16:58;101658.03;;;-0.24;95.08
41515;BME280;27247;48.020;16.720;2023-02-04T20:21:10;101661.88;;;-0.33;95.33
41515;BME280;27247;48.020;16.720;2023-02-04T20:25:38;101654.28;;;-0.62;98.09
41515;BME280;27247;48.020;16.720;2023-02-04T20:29:52;101639.88;;;-0.74;98.96
41515;BME280;27247;48.020;16.720;2023-02-04T20:34:15;101629.13;;;-0.68;97.63
41515;BME280;27247;48.020;16.720;2023-02-04T20:38:26;101635.13;;;-0.64;95.26
41515;BME280;27247;48.020;16.720;2023-02-04T20:42:44;101646.72;;;-0.48;95.53
41515;BME280;27247;48.020;16.720;2023-02-04T20:47:01;101652.94;;;-0.50;97.35
41515;BME280;27247;48.020;16.720;2023-02-04T20:51:22;101656.13;;;-0.42;98.73
41515;BME280;27247;48.020;16.720;2023-02-04T20:55:33;101646.66;;;-0.46;99.27
41515;BME280;27247;48.020;16.720;2023-02-04T20:59:44;101643.53;;;-0.56;99.49
41515;BME280;27247;48.020;16.720;2023-02-04T21:03:56;101645.00;;;-0.49;98.64
41515;BME280;27247;48.020;16.720;2023-02-04T21:08:34;101646.72;;;-0.48;97.19
41515;BME280;27247;48.020;16.720;2023-02-04T21:12:47;101640.75;;;-0.51;96.56
41515;BME280;27247;48.020;16.720;2023-02-04T21:16:58;101643.25;;;-0.48;95.56
41515;BME280;27247;48.020;16.720;2023-02-04T21:21:08;101647.47;;;-0.44;94.97
41515;BME280;27247;48.020;16.720;2023-02-04T21:25:19;101633.53;;;-0.46;94.42
41515;BME280;27247;48.020;16.720;2023-02-04T21:29:29;101636.22;;;-0.48;93.54
41515;BME280;27247;48.020;16.720;2023-02-04T21:33:40;101630.00;;;-0.45;93.13
41515;BME280;27247;48.020;16.720;2023-02-04T21:37:51;101628.16;;;-0.43;92.15
41515;BME280;27247;48.020;16.720;2023-02-04T21:42:01;101629.81;;;-0.41;90.39
41515;BME280;27247;48.020;16.720;2023-02-04T21:46:23;101634.22;;;-0.41;89.18
41515;BME280;27247;48.020;16.720;2023-02-04T21:50:34;101636.91;;;-0.43;88.56
41515;BME280;27247;48.020;16.720;2023-02-04T21:54:46;101633.66;;;-0.49;87.61
41515;BME280;27247;48.020;16.720;2023-02-04T21:58:56;101627.84;;;-0.57;87.99
41515;BME280;27247;48.020;16.720;2023-02-04T22:03:07;101612.03;;;-0.56;86.95
41515;BME280;27247;48.020;16.720;2023-02-04T22:07:22;101627.63;;;-0.51;87.84
41515;BME280;27247;48.020;16.720;2023-02-04T22:11:32;101626.75;;;-0.52;87.84
41515;BME280;27247;48.020;16.720;2023-02-04T22:15:42;101639.69;;;-0.47;88.14
41515;BME280;27247;48.020;16.720;2023-02-04T22:19:53;101633.78;;;-0.52;87.77
41515;BME280;27247;48.020;16.720;2023-02-04T22:24:03;101636.66;;;-0.58;87.29